Time;durP1;ratioP1;P1;durP2;ratioP2;P2;SDS_P1;SDS_P2;PMS_P1;PMS_P2;Temp;Humidity;BMP_temperature;BMP_pressure;BME280_temperature;BME280_humidity;BME280_pressure;Samples;Min_cycle;Max_cycle;Signal;HPM_P1;HPM_P2
2021/05/04 00:02:04;;;;;;;4.88;2.70;;;;;;;;;;4990162;28;20179;-71
2021/05/04 00:04:30;;;;;;;3.40;1.58;;;;;;;;;;5021485;28;20054;-71
2021/05/04 00:06:56;;;;;;;6.00;2.50;;;;;;;;;;5004545;28;20055;-71
2021/05/04 00:09:23;;;;;;;6.55;2.28;;;;;;;;;;5009324;28;20071;-70
2021/05/04 00:11:49;;;;;;;2.88;1.58;;;;;;;;;;5041138;28;20029;-71
2021/05/04 00:14:15;;;;;;;5.28;2.05;;;;;;;;;;5009556;28;20101;-71
2021/05/04 00:16:41;;;;;;;10.98;2.70;;;;;;;;;;5041208;28;20034;-71
2021/05/04 00:19:07;;;;;;;3.72;1.95;;;;;;;;;;5009291;28;20033;-71
2021/05/04 00:21:33;;;;;;;4.10;1.88;;;;;;;;;;5008994;28;20026;-70
2021/05/04 00:24:00;;;;;;;5.05;2.35;;;;;;;;;;4989999;28;20487;-71
2021/05/04 00:26:26;;;;;;;4.72;2.35;;;;;;;;;;4989775;28;20046;-70
2021/05/04 00:28:52;;;;;;;8.35;2.33;;;;;;;;;;4989625;28;20019;-71
2021/05/04 00:31:18;;;;;;;4.65;1.98;;;;;;;;;;4997869;28;20423;-72
2021/05/04 00:33:44;;;;;;;3.83;1.75;;;;;;;;;;5009092;28;20030;-70
2021/05/04 00:36:11;;;;;;;5.50;2.30;;;;;;;;;;5009052;28;20079;-71
2021/05/04 00:38:37;;;;;;;5.65;2.30;;;;;;;;;;5009269;28;20026;-71
2021/05/04 00:41:03;;;;;;;4.65;2.38;;;;;;;;;;5009103;28;20029;-71
2021/05/04 00:43:30;;;;;;;3.65;1.90;;;;;;;;;;5009088;28;20052;-70
2021/05/04 00:45:57;;;;;;;9.45;2.40;;;;;;;;;;5008568;28;20037;-70
2021/05/04 00:48:23;;;;;;;6.68;1.90;;;;;;;;;;5007662;28;20045;-69
2021/05/04 00:50:50;;;;;;;11.68;2.72;;;;;;;;;;5007588;28;20636;-70
2021/05/04 00:53:16;;;;;;;4.75;2.38;;;;;;;;;;5008823;28;20026;-70
2021/05/04 00:55:43;;;;;;;3.95;2.13;;;;;;;;;;5008752;28;20097;-70
2021/05/04 00:58:09;;;;;;;6.60;2.38;;;;;;;;;;5008820;28;20025;-68
2021/05/04 01:00:36;;;;;;;5.93;2.28;;;;;;;;;;5007620;28;20113;-69
2021/05/04 01:03:03;;;;;;;3.85;1.85;;;;;;;;;;5007529;28;20021;-70
2021/05/04 01:05:29;;;;;;;5.15;2.30;;;;;;;;;;5008521;28;20112;-70
2021/05/04 01:07:55;;;;;;;4.55;2.33;;;;;;;;;;5035946;28;20034;-70
2021/05/04 01:10:21;;;;;;;4.25;2.05;;;;;;;;;;4989170;28;20054;-70
2021/05/04 01:12:48;;;;;;;5.00;2.40;;;;;;;;;;4989032;28;20117;-70
2021/05/04 01:15:14;;;;;;;5.97;2.50;;;;;;;;;;4988973;28;20083;-70
2021/05/04 01:17:40;;;;;;;5.35;2.65;;;;;;;;;;4988913;28;20011;-69
2021/05/04 01:20:07;;;;;;;4.95;2.72;;;;;;;;;;4989202;28;20065;-71
2021/05/04 01:22:33;;;;;;;4.30;2.35;;;;;;;;;;4988986;28;20023;-71
2021/05/04 01:24:59;;;;;;;4.60;2.05;;;;;;;;;;4988916;28;20029;-70
2021/05/04 01:27:25;;;;;;;4.63;2.30;;;;;;;;;;4988795;28;20026;-71
2021/05/04 01:29:51;;;;;;;6.43;2.28;;;;;;;;;;4988910;28;20030;-70
2021/05/04 01:32:18;;;;;;;4.57;2.40;;;;;;;;;;4988800;28;20596;-70
2021/05/04 01:34:44;;;;;;;5.13;2.33;;;;;;;;;;4988595;28;20049;-69
2021/05/04 01:37:10;;;;;;;3.70;1.98;;;;;;;;;;4988017;28;20055;-68
2021/05/04 01:39:36;;;;;;;4.82;2.40;;;;;;;;;;4988080;28;20030;-68
2021/05/04 01:42:02;;;;;;;6.70;2.65;;;;;;;;;;4988160;28;20084;-69
2021/05/04 01:44:28;;;;;;;4.90;2.38;;;;;;;;;;4988085;28;20030;-69
2021/05/04 01:46:54;;;;;;;3.63;2.13;;;;;;;;;;4988083;28;20083;-69
2021/05/04 01:49:20;;;;;;;4.70;2.22;;;;;;;;;;4988044;28;20026;-70
2021/05/04 01:51:46;;;;;;;4.55;2.60;;;;;;;;;;4986791;28;20067;-71
2021/05/04 01:54:13;;;;;;;4.53;2.42;;;;;;;;;;4988017;28;20026;-70
2021/05/04 01:56:39;;;;;;;5.25;2.40;;;;;;;;;;4987970;28;20156;-71
2021/05/04 01:59:06;;;;;;;6.00;2.70;;;;;;;;;;4989538;28;20023;-68
2021/05/04 02:01:32;;;;;;;5.82;2.60;;;;;;;;;;4991848;28;20131;-70
2021/05/04 02:03:58;;;;;;;5.85;2.65;;;;;;;;;;4991821;28;20101;-68
2021/05/04 02:06:24;;;;;;;6.63;2.78;;;;;;;;;;5001956;28;20042;-70
2021/05/04 02:08:50;;;;;;;4.75;2.50;;;;;;;;;;5011444;28;20029;-70
2021/05/04 02:11:16;;;;;;;5.60;2.40;;;;;;;;;;5011313;28;20397;-70
2021/05/04 02:13:43;;;;;;;5.00;2.50;;;;;;;;;;5011292;28;20018;-71
2021/05/04 02:16:09;;;;;;;5.28;2.70;;;;;;;;;;5011309;28;20026;-69
2021/05/04 02:18:35;;;;;;;4.40;2.40;;;;;;;;;;5011324;28;20026;-69
2021/05/04 02:21:01;;;;;;;8.88;2.47;;;;;;;;;;5011353;28;20030;-69
2021/05/04 02:23:27;;;;;;;4.63;2.50;;;;;;;;;;5011343;28;20382;-70
2021/05/04 02:25:53;;;;;;;5.00;2.55;;;;;;;;;;5042940;28;20371;-69
2021/05/04 02:28:19;;;;;;;4.13;2.25;;;;;;;;;;5010937;28;20026;-70
2021/05/04 02:30:45;;;;;;;4.00;2.40;;;;;;;;;;5011442;28;20033;-69
2021/05/04 02:33:11;;;;;;;4.78;2.40;;;;;;;;;;5009109;28;20069;-70
2021/05/04 02:35:37;;;;;;;5.10;2.60;;;;;;;;;;5008916;28;20116;-69
2021/05/04 02:38:04;;;;;;;6.18;2.50;;;;;;;;;;5008915;28;20105;-68
2021/05/04 02:40:30;;;;;;;5.13;2.42;;;;;;;;;;5009889;28;20057;-70
2021/05/04 02:42:56;;;;;;;7.30;2.50;;;;;;;;;;5010289;28;20105;-69
2021/05/04 02:45:22;;;;;;;6.43;2.85;;;;;;;;;;5041911;28;20435;-68
2021/05/04 02:47:48;;;;;;;4.63;2.72;;;;;;;;;;5041997;28;20053;-68
2021/05/04 02:50:14;;;;;;;5.82;3.13;;;;;;;;;;5010220;28;20033;-68
2021/05/04 02:52:40;;;;;;;8.10;4.15;;;;;;;;;;5009985;28;20028;-70
2021/05/04 02:55:06;;;;;;;7.20;4.25;;;;;;;;;;5009863;28;20074;-69
2021/05/04 02:57:32;;;;;;;9.15;4.25;;;;;;;;;;5009878;28;20025;-69
2021/05/04 02:59:58;;;;;;;7.18;4.20;;;;;;;;;;5041576;28;20028;-69
2021/05/04 03:02:24;;;;;;;10.40;5.18;;;;;;;;;;5009590;28;20123;-69
2021/05/04 03:04:51;;;;;;;7.85;4.93;;;;;;;;;;5010627;28;20502;-69
2021/05/04 03:07:17;;;;;;;8.50;4.93;;;;;;;;;;4993057;28;20053;-69
2021/05/04 03:09:43;;;;;;;11.82;5.60;;;;;;;;;;4990665;28;20561;-69
2021/05/04 03:12:09;;;;;;;8.20;5.15;;;;;;;;;;4989564;28;20596;-69
2021/05/04 03:14:35;;;;;;;9.80;5.65;;;;;;;;;;4990930;28;20037;-69
2021/05/04 03:17:01;;;;;;;11.48;5.65;;;;;;;;;;4990342;28;20393;-69
2021/05/04 03:19:27;;;;;;;9.32;5.30;;;;;;;;;;4988921;28;20034;-69
2021/05/04 03:21:53;;;;;;;9.70;4.97;;;;;;;;;;4990174;28;20097;-69
2021/05/04 03:24:19;;;;;;;8.05;5.25;;;;;;;;;;4989744;28;20072;-69
2021/05/04 03:26:45;;;;;;;12.80;5.53;;;;;;;;;;4989821;28;20483;-69
2021/05/04 03:29:12;;;;;;;9.60;5.22;;;;;;;;;;4989841;28;20048;-69
2021/05/04 03:31:38;;;;;;;8.75;5.30;;;;;;;;;;4988446;28;20452;-69
2021/05/04 03:34:04;;;;;;;9.68;5.30;;;;;;;;;;4988453;28;20069;-69
2021/05/04 03:36:30;;;;;;;8.50;4.60;;;;;;;;;;4989603;28;20053;-69
2021/05/04 03:38:56;;;;;;;13.18;5.68;;;;;;;;;;4989534;28;20022;-69
2021/05/04 03:41:22;;;;;;;11.38;5.15;;;;;;;;;;4989663;28;20026;-69
2021/05/04 03:43:48;;;;;;;10.82;5.30;;;;;;;;;;4989785;28;20478;-68
2021/05/04 03:46:14;;;;;;;8.32;5.35;;;;;;;;;;4988695;28;20038;-69
2021/05/04 03:48:41;;;;;;;8.98;5.03;;;;;;;;;;4990323;28;20050;-68
2021/05/04 03:51:07;;;;;;;18.90;5.40;;;;;;;;;;4990488;28;20033;-69
2021/05/04 03:53:35;;;;;;;7.68;4.72;;;;;;;;;;4990152;28;20532;-69
2021/05/04 03:56:01;;;;;;;8.55;5.00;;;;;;;;;;4990078;28;20533;-69
2021/05/04 03:58:27;;;;;;;11.15;4.82;;;;;;;;;;4990285;28;20503;-69
2021/05/04 04:00:53;;;;;;;8.23;5.18;;;;;;;;;;4990181;28;20037;-69
2021/05/04 04:03:19;;;;;;;7.95;5.05;;;;;;;;;;4990055;28;20072;-69
2021/05/04 04:05:45;;;;;;;8.25;5.15;;;;;;;;;;4989997;28;20402;-68
2021/05/04 04:08:12;;;;;;;17.80;5.60;;;;;;;;;;4988640;28;20435;-69
2021/05/04 04:10:39;;;;;;;10.60;5.78;;;;;;;;;;4989917;28;20025;-69
2021/05/04 04:13:06;;;;;;;9.80;5.43;;;;;;;;;;4989852;28;20165;-70
2021/05/04 04:15:32;;;;;;;9.43;5.40;;;;;;;;;;4989763;28;20582;-69
2021/05/04 04:17:58;;;;;;;11.75;6.18;;;;;;;;;;4989658;28;20080;-69
2021/05/04 04:20:24;;;;;;;13.32;5.35;;;;;;;;;;4988965;28;20106;-69
2021/05/04 04:22:50;;;;;;;7.88;4.97;;;;;;;;;;4989766;28;20026;-69
2021/05/04 04:25:16;;;;;;;13.55;5.40;;;;;;;;;;5021277;28;20040;-69
2021/05/04 04:27:43;;;;;;;11.25;5.63;;;;;;;;;;4989937;28;20422;-69
2021/05/04 04:30:09;;;;;;;10.90;5.22;;;;;;;;;;5020916;28;20607;-70
2021/05/04 04:32:35;;;;;;;14.10;5.95;;;;;;;;;;5021036;28;20092;-70
2021/05/04 04:35:01;;;;;;;16.65;5.82;;;;;;;;;;4989391;28;20034;-69
2021/05/04 04:37:27;;;;;;;12.20;5.45;;;;;;;;;;4989519;28;20068;-69
2021/05/04 04:39:53;;;;;;;10.05;5.65;;;;;;;;;;4989610;28;20011;-70
2021/05/04 04:42:20;;;;;;;10.02;5.65;;;;;;;;;;4989612;28;20413;-70
2021/05/04 04:44:46;;;;;;;13.52;5.97;;;;;;;;;;4989572;28;20588;-70
2021/05/04 04:47:12;;;;;;;11.27;5.82;;;;;;;;;;4989311;28;20114;-70
2021/05/04 04:49:39;;;;;;;13.07;6.20;;;;;;;;;;5020639;28;20072;-70
2021/05/04 04:52:05;;;;;;;11.00;6.88;;;;;;;;;;4989272;28;20015;-70
2021/05/04 04:54:34;;;;;;;11.95;6.65;;;;;;;;;;4989273;28;20050;-70
2021/05/04 04:57:00;;;;;;;18.23;11.10;;;;;;;;;;5020638;28;20105;-70
2021/05/04 04:59:27;;;;;;;13.05;6.60;;;;;;;;;;4989304;28;20073;-69
2021/05/04 05:01:53;;;;;;;15.38;7.05;;;;;;;;;;4989162;28;20034;-70
2021/05/04 05:04:19;;;;;;;14.60;7.32;;;;;;;;;;5020616;28;20022;-70
2021/05/04 05:06:45;;;;;;;10.57;7.35;;;;;;;;;;4988984;28;20029;-70
2021/05/04 05:09:11;;;;;;;16.38;8.82;;;;;;;;;;4987524;28;20094;-70
2021/05/04 05:11:38;;;;;;;16.85;8.73;;;;;;;;;;4987550;28;20062;-70
2021/05/04 05:14:05;;;;;;;21.67;9.65;;;;;;;;;;4987934;28;20023;-70
2021/05/04 05:16:31;;;;;;;25.85;9.82;;;;;;;;;;4988956;28;20034;-70
2021/05/04 05:18:58;;;;;;;20.08;8.90;;;;;;;;;;4988859;28;20022;-70
2021/05/04 05:21:24;;;;;;;12.93;8.93;;;;;;;;;;4987596;28;20105;-70
2021/05/04 05:23:50;;;;;;;16.88;8.13;;;;;;;;;;4987253;28;20027;-70
2021/05/04 05:26:17;;;;;;;20.30;8.93;;;;;;;;;;4988676;28;20124;-70
2021/05/04 05:28:43;;;;;;;16.17;9.35;;;;;;;;;;4987363;28;20020;-70
2021/05/04 05:31:09;;;;;;;43.85;10.88;;;;;;;;;;4988694;28;20037;-70
2021/05/04 05:33:35;;;;;;;18.33;9.90;;;;;;;;;;4990202;28;20081;-70
2021/05/04 05:36:02;;;;;;;28.50;10.50;;;;;;;;;;4991954;28;20066;-70
2021/05/04 05:38:28;;;;;;;50.53;11.35;;;;;;;;;;4992010;28;20031;-70
2021/05/04 05:40:55;;;;;;;22.60;11.43;;;;;;;;;;4992043;28;20509;-70
2021/05/04 05:43:22;;;;;;;18.50;9.68;;;;;;;;;;5023542;28;20125;-70
2021/05/04 05:45:48;;;;;;;26.73;11.38;;;;;;;;;;4990645;28;20792;-70
2021/05/04 05:48:14;;;;;;;22.08;10.45;;;;;;;;;;5023162;28;20040;-70
2021/05/04 05:50:40;;;;;;;18.38;11.15;;;;;;;;;;5023454;28;20034;-70
2021/05/04 05:53:06;;;;;;;17.92;11.25;;;;;;;;;;4991743;28;20486;-70
2021/05/04 05:55:32;;;;;;;13.80;10.70;;;;;;;;;;5022850;28;20043;-70
2021/05/04 05:57:59;;;;;;;23.17;11.35;;;;;;;;;;4991690;28;20506;-70
2021/05/04 06:00:25;;;;;;;18.70;11.65;;;;;;;;;;4991306;28;20038;-70
2021/05/04 06:02:51;;;;;;;16.10;9.75;;;;;;;;;;5023040;28;20423;-71
2021/05/04 06:05:18;;;;;;;15.98;10.82;;;;;;;;;;4992969;28;20078;-71
2021/05/04 06:07:44;;;;;;;27.90;11.48;;;;;;;;;;5011064;28;20059;-70
2021/05/04 06:10:12;;;;;;;17.88;9.40;;;;;;;;;;5009788;28;20032;-70
2021/05/04 06:12:38;;;;;;;30.23;11.52;;;;;;;;;;5011114;28;20029;-70
2021/05/04 06:15:04;;;;;;;18.10;10.85;;;;;;;;;;5011188;28;20126;-70
2021/05/04 06:17:30;;;;;;;24.90;9.80;;;;;;;;;;5011078;28;20026;-71
2021/05/04 06:19:56;;;;;;;19.08;10.68;;;;;;;;;;5011300;28;20022;-71
2021/05/04 06:22:22;;;;;;;18.13;10.75;;;;;;;;;;5011270;28;20494;-71
2021/05/04 06:24:48;;;;;;;17.50;10.48;;;;;;;;;;5011015;28;20026;-71
2021/05/04 06:27:15;;;;;;;23.20;12.95;;;;;;;;;;5010990;28;20018;-70
2021/05/04 06:29:41;;;;;;;19.25;12.45;;;;;;;;;;5010884;28;20019;-70
2021/05/04 06:32:11;;;;;;;29.90;13.73;;;;;;;;;;5009359;28;20622;-71
2021/05/04 06:34:37;;;;;;;15.00;7.38;;;;;;;;;;5010784;28;20026;-72
2021/05/04 06:37:04;;;;;;;19.23;13.07;;;;;;;;;;5042334;28;20038;-71
2021/05/04 06:39:30;;;;;;;28.88;14.85;;;;;;;;;;5009278;28;20025;-72
2021/05/04 06:41:57;;;;;;;22.45;12.98;;;;;;;;;;5003669;28;20083;-69
2021/05/04 06:44:23;;;;;;;28.88;13.95;;;;;;;;;;5009401;28;20121;-70
2021/05/04 06:46:49;;;;;;;19.45;5.50;;;;;;;;;;5008915;28;20055;-69
2021/05/04 06:49:15;;;;;;;12.55;4.97;;;;;;;;;;5010831;28;20022;-71
2021/05/04 06:51:41;;;;;;;12.63;4.10;;;;;;;;;;5010639;28;20026;-69
2021/05/04 06:54:07;;;;;;;7.75;4.53;;;;;;;;;;5010220;28;20037;-70
2021/05/04 06:56:33;;;;;;;13.70;4.38;;;;;;;;;;5002420;28;20490;-71
2021/05/04 06:58:59;;;;;;;12.05;4.00;;;;;;;;;;4993208;28;20041;-73
2021/05/04 07:01:25;;;;;;;11.15;3.97;;;;;;;;;;5009992;28;20027;-70
2021/05/04 07:03:53;;;;;;;9.05;3.90;;;;;;;;;;5041777;28;20095;-69
2021/05/04 07:06:19;;;;;;;8.88;3.55;;;;;;;;;;5019455;28;20022;-70
2021/05/04 07:08:45;;;;;;;11.45;3.22;;;;;;;;;;5029661;28;20416;-70
2021/05/04 07:11:11;;;;;;;8.55;3.20;;;;;;;;;;5029599;28;20018;-73
2021/05/04 07:13:37;;;;;;;8.48;2.97;;;;;;;;;;5019942;28;20127;-72
2021/05/04 07:16:03;;;;;;;6.25;3.60;;;;;;;;;;5010016;28;20577;-72
2021/05/04 07:18:29;;;;;;;6.80;3.03;;;;;;;;;;5009998;28;20101;-72
2021/05/04 07:20:55;;;;;;;5.45;2.78;;;;;;;;;;5008441;28;20383;-72
2021/05/04 07:23:21;;;;;;;6.30;2.85;;;;;;;;;;5009754;28;20022;-72
2021/05/04 07:25:48;;;;;;;6.47;2.83;;;;;;;;;;5009524;28;20067;-73
2021/05/04 07:28:14;;;;;;;6.88;2.42;;;;;;;;;;5009558;28;20030;-74
2021/05/04 07:30:42;;;;;;;6.97;2.40;;;;;;;;;;5001124;28;20467;-69
2021/05/04 07:33:08;;;;;;;8.38;2.78;;;;;;;;;;4989956;28;20078;-74
2021/05/04 07:35:35;;;;;;;6.53;2.65;;;;;;;;;;5021070;28;20430;-75
2021/05/04 07:38:01;;;;;;;6.97;2.47;;;;;;;;;;4990368;28;20476;-73
2021/05/04 07:40:27;;;;;;;5.93;2.13;;;;;;;;;;5021580;28;20472;-75
2021/05/04 07:42:53;;;;;;;4.88;2.33;;;;;;;;;;5021326;28;20031;-75
2021/05/04 07:45:19;;;;;;;6.90;2.45;;;;;;;;;;4990236;28;20082;-72
2021/05/04 07:47:52;;;;;;;4.68;1.98;;;;;;;;;;5030913;28;20592;-77
2021/05/04 07:50:18;;;;;;;5.43;1.98;;;;;;;;;;5009819;28;20050;-77
2021/05/04 07:52:44;;;;;;;5.70;2.00;;;;;;;;;;5009867;28;20014;-75
2021/05/04 07:55:10;;;;;;;6.65;2.05;;;;;;;;;;5008322;28;20410;-71
2021/05/04 07:57:37;;;;;;;5.88;2.33;;;;;;;;;;5041202;28;20030;-76
2021/05/04 08:00:04;;;;;;;4.40;1.90;;;;;;;;;;5009171;28;20021;-74
2021/05/04 08:02:30;;;;;;;4.22;2.03;;;;;;;;;;5009214;28;20159;-72
2021/05/04 08:04:56;;;;;;;9.93;1.88;;;;;;;;;;5029592;28;20026;-74
2021/05/04 08:07:22;;;;;;;6.05;1.92;;;;;;;;;;5025666;28;20017;-74
2021/05/04 08:09:48;;;;;;;4.82;1.80;;;;;;;;;;5027556;28;20112;-76
2021/05/04 08:12:14;;;;;;;4.22;1.67;;;;;;;;;;5027376;28;20130;-75
2021/05/04 08:14:41;;;;;;;4.22;1.75;;;;;;;;;;5028495;28;20049;-75
2021/05/04 08:17:16;;;;;;;3.58;1.40;;;;;;;;;;5027444;28;20094;-75
2021/05/04 08:19:43;;;;;;;3.63;1.40;;;;;;;;;;5028736;28;20028;-74
2021/05/04 08:22:09;;;;;;;3.42;1.48;;;;;;;;;;5014477;28;20024;-76
2021/05/04 08:24:35;;;;;;;3.42;1.40;;;;;;;;;;4989101;28;20056;-75
2021/05/04 08:27:01;;;;;;;4.07;1.45;;;;;;;;;;4989384;28;20031;-65
2021/05/04 08:29:27;;;;;;;3.40;1.40;;;;;;;;;;4989278;28;20022;-66
2021/05/04 08:31:53;;;;;;;6.05;1.42;;;;;;;;;;4988906;28;20037;-69
2021/05/04 08:34:21;;;;;;;3.13;1.20;;;;;;;;;;4989587;28;20023;-70
2021/05/04 08:36:48;;;;;;;3.67;1.40;;;;;;;;;;4988853;28;20482;-72
2021/05/04 08:39:14;;;;;;;5.72;1.55;;;;;;;;;;5006486;28;20030;-72
2021/05/04 08:41:41;;;;;;;3.65;1.40;;;;;;;;;;5040404;28;20103;-70
2021/05/04 08:44:07;;;;;;;4.07;1.30;;;;;;;;;;5008963;28;20042;-68
2021/05/04 08:46:37;;;;;;;3.25;1.30;;;;;;;;;;5009388;28;20045;-69
2021/05/04 08:49:04;;;;;;;3.95;1.35;;;;;;;;;;5009217;28;20095;-70
2021/05/04 08:51:30;;;;;;;3.80;1.30;;;;;;;;;;5008550;28;20071;-67
2021/05/04 08:53:56;;;;;;;3.65;1.30;;;;;;;;;;5008352;28;20029;-65
2021/05/04 08:56:22;;;;;;;4.15;1.10;;;;;;;;;;5007650;28;20546;-69
2021/05/04 08:58:48;;;;;;;3.22;1.02;;;;;;;;;;5008555;28;20029;-66
2021/05/04 09:01:15;;;;;;;3.88;1.10;;;;;;;;;;5008346;28;20064;-65
2021/05/04 09:03:47;;;;;;;3.80;1.10;;;;;;;;;;5008283;28;20122;-70
2021/05/04 09:06:26;;;;;;;;;;;;;;;;;;5017572;28;20056;-69
2021/05/04 09:09:03;;;;;;;5.25;0.80;;;;;;;;;;5027938;28;19905;-68
2021/05/04 09:20:05;;;;;;;3.55;1.25;;;;;;;;;;5008122;28;20083;-71
2021/05/04 09:22:39;;;;;;;1.52;0.70;;;;;;;;;;5007889;28;20152;-74
2021/05/04 09:25:25;;;;;;;2.30;0.90;;;;;;;;;;5007848;28;20082;-70
2021/05/04 09:27:58;;;;;;;2.70;0.80;;;;;;;;;;5007753;28;20038;-70
2021/05/04 09:30:24;;;;;;;3.13;1.02;;;;;;;;;;5025328;28;20113;-72
2021/05/04 09:32:50;;;;;;;3.72;0.80;;;;;;;;;;5020052;28;20061;-66
2021/05/04 09:35:17;;;;;;;2.20;0.73;;;;;;;;;;4988796;28;20030;-69
2021/05/04 09:37:45;;;;;;;2.05;0.77;;;;;;;;;;5020190;28;20105;-69
2021/05/04 09:40:28;;;;;;;2.03;0.68;;;;;;;;;;5020591;28;20034;-69
2021/05/04 09:43:10;;;;;;;1.50;0.70;;;;;;;;;;4988972;28;20026;-67
2021/05/04 09:45:40;;;;;;;6.00;0.90;;;;;;;;;;5003517;28;20100;-66
2021/05/04 09:48:21;;;;;;;5.50;0.93;;;;;;;;;;5019749;28;20066;-68
2021/05/04 09:50:56;;;;;;;2.00;0.60;;;;;;;;;;4988568;28;20046;-73
2021/05/04 09:53:29;;;;;;;11.48;1.13;;;;;;;;;;4988235;28;20105;-73
2021/05/04 09:55:56;;;;;;;3.95;1.10;;;;;;;;;;4987921;28;20015;-73
2021/05/04 09:58:36;;;;;;;1.83;0.77;;;;;;;;;;4988165;28;20033;-68
2021/05/04 10:01:03;;;;;;;1.42;0.60;;;;;;;;;;5019614;28;20030;-69
2021/05/04 10:03:29;;;;;;;2.30;0.88;;;;;;;;;;4995294;28;20101;-69
2021/05/04 10:05:57;;;;;;;2.10;0.70;;;;;;;;;;5014182;28;20112;-66
2021/05/04 10:08:24;;;;;;;1.25;0.60;;;;;;;;;;5027301;28;20060;-66
2021/05/04 10:10:50;;;;;;;2.10;0.73;;;;;;;;;;5027460;28;20036;-66
2021/05/04 10:13:18;;;;;;;0.88;0.50;;;;;;;;;;5027506;28;20025;-67
2021/05/04 10:15:45;;;;;;;1.67;0.57;;;;;;;;;;5027209;28;20025;-66
2021/05/04 10:18:12;;;;;;;2.42;0.63;;;;;;;;;;5027251;28;20030;-67
2021/05/04 10:20:38;;;;;;;3.00;0.60;;;;;;;;;;5020592;28;20022;-68
2021/05/04 10:23:05;;;;;;;2.17;0.98;;;;;;;;;;5042693;28;20512;-71
2021/05/04 10:25:31;;;;;;;1.65;0.63;;;;;;;;;;5010795;28;20116;-68
2021/05/04 10:27:57;;;;;;;3.00;0.80;;;;;;;;;;5042683;28;20129;-70
2021/05/04 10:30:24;;;;;;;1.88;0.60;;;;;;;;;;5042838;28;20022;-67
2021/05/04 10:32:52;;;;;;;1.10;0.60;;;;;;;;;;5010773;28;20417;-66
2021/05/04 10:35:33;;;;;;;2.38;0.80;;;;;;;;;;5021337;28;20018;-66
2021/05/04 10:38:00;;;;;;;1.58;0.57;;;;;;;;;;5013395;28;20049;-66
2021/05/04 10:40:31;;;;;;;1.42;0.57;;;;;;;;;;5014711;28;20038;-68
2021/05/04 10:43:01;;;;;;;2.73;0.70;;;;;;;;;;5014746;28;20014;-71
2021/05/04 10:45:41;;;;;;;2.60;0.63;;;;;;;;;;5021068;28;20026;-73
2021/05/04 10:48:08;;;;;;;2.72;0.65;;;;;;;;;;5030297;28;20065;-66
2021/05/04 10:50:54;;;;;;;1.48;0.60;;;;;;;;;;5030325;28;20104;-69
2021/05/04 10:53:21;;;;;;;26.00;1.27;;;;;;;;;;5029868;28;20037;-67
2021/05/04 10:55:53;;;;;;;2.22;0.82;;;;;;;;;;5010560;28;20025;-66
2021/05/04 10:58:25;;;;;;;10.05;1.20;;;;;;;;;;5009193;28;20255;-73
2021/05/04 11:00:52;;;;;;;8.25;1.00;;;;;;;;;;5008686;28;20030;-67
2021/05/04 11:03:34;;;;;;;3.50;1.00;;;;;;;;;;5040656;28;20014;-73
2021/05/04 11:06:09;;;;;;;5.10;0.90;;;;;;;;;;5015644;28;20097;-67
2021/05/04 11:08:44;;;;;;;5.80;0.75;;;;;;;;;;5028809;28;20026;-66
2021/05/04 11:11:29;;;;;;;6.07;0.82;;;;;;;;;;5022928;28;20249;-66
2021/05/04 11:13:59;;;;;;;4.97;0.90;;;;;;;;;;5009115;28;20029;-67
2021/05/04 11:16:35;;;;;;;5.10;1.00;;;;;;;;;;5010172;28;20046;-66
2021/05/04 11:19:10;;;;;;;3.47;0.93;;;;;;;;;;5009956;28;20022;-67
2021/05/04 11:21:44;;;;;;;5.97;0.90;;;;;;;;;;5010053;28;20101;-66
2021/05/04 11:24:14;;;;;;;7.95;1.38;;;;;;;;;;5010158;28;20048;-66
2021/05/04 11:26:50;;;;;;;6.22;0.80;;;;;;;;;;5009949;28;20483;-66
2021/05/04 11:29:17;;;;;;;2.95;0.77;;;;;;;;;;4996270;28;20031;-67
2021/05/04 11:31:50;;;;;;;4.72;0.95;;;;;;;;;;5021238;28;20126;-67
2021/05/04 11:34:35;;;;;;;4.15;0.80;;;;;;;;;;5021684;28;20379;-66
2021/05/04 11:37:02;;;;;;;5.03;0.90;;;;;;;;;;4989975;28;20032;-66
2021/05/04 11:39:28;;;;;;;3.08;0.80;;;;;;;;;;5022002;28;20486;-66
2021/05/04 11:42:03;;;;;;;3.53;0.95;;;;;;;;;;4990237;28;20066;-69
2021/05/04 11:44:30;;;;;;;4.57;0.70;;;;;;;;;;4990240;28;20019;-66
2021/05/04 11:46:56;;;;;;;2.72;0.80;;;;;;;;;;5008488;28;20480;-66
2021/05/04 11:49:23;;;;;;;2.33;0.90;;;;;;;;;;5008925;28;20390;-66
2021/05/04 11:52:05;;;;;;;2.78;0.90;;;;;;;;;;5008946;28;20532;-66
2021/05/04 11:54:31;;;;;;;2.83;1.10;;;;;;;;;;5009507;28;20508;-66
2021/05/04 11:56:58;;;;;;;1.90;0.88;;;;;;;;;;5041256;28;20117;-66
2021/05/04 11:59:26;;;;;;;3.67;1.00;;;;;;;;;;5041181;28;20030;-67
2021/05/04 12:01:52;;;;;;;3.85;1.02;;;;;;;;;;5006798;28;20026;-66
2021/05/04 12:04:18;;;;;;;3.53;1.02;;;;;;;;;;4989463;28;20030;-66
2021/05/04 12:06:45;;;;;;;2.65;0.90;;;;;;;;;;5034056;28;20038;-66
2021/05/04 12:09:12;;;;;;;2.92;0.85;;;;;;;;;;5009135;28;20067;-66
2021/05/04 12:11:38;;;;;;;4.82;1.02;;;;;;;;;;5040769;28;20082;-66
2021/05/04 12:14:05;;;;;;;2.10;0.80;;;;;;;;;;5009110;28;20101;-65
2021/05/04 12:16:31;;;;;;;3.97;1.00;;;;;;;;;;5009036;28;20018;-65
2021/05/04 12:18:57;;;;;;;4.07;1.38;;;;;;;;;;5008375;28;20030;-67
2021/05/04 12:21:23;;;;;;;3.40;1.05;;;;;;;;;;5009136;28;20652;-67
2021/05/04 12:23:49;;;;;;;6.50;1.20;;;;;;;;;;4993995;28;20137;-69
2021/05/04 12:26:20;;;;;;;3.33;0.90;;;;;;;;;;5003963;28;20038;-68
2021/05/04 12:28:51;;;;;;;3.20;1.20;;;;;;;;;;4998883;28;20025;-65
2021/05/04 12:31:30;;;;;;;3.75;1.23;;;;;;;;;;5004641;28;20112;-66
2021/05/04 12:33:56;;;;;;;3.10;0.93;;;;;;;;;;5007682;28;20073;-67
2021/05/04 12:36:45;;;;;;;4.45;1.20;;;;;;;;;;5005103;28;20117;-69
2021/05/04 12:39:20;;;;;;;2.65;1.00;;;;;;;;;;5005777;28;20021;-67
2021/05/04 12:41:49;;;;;;;2.90;0.88;;;;;;;;;;5006717;28;20106;-68
2021/05/04 12:44:25;;;;;;;3.90;0.90;;;;;;;;;;5034187;27;20030;-68
2021/05/04 12:46:53;;;;;;;5.32;1.00;;;;;;;;;;5040126;28;20113;-70
2021/05/04 12:49:19;;;;;;;3.00;1.08;;;;;;;;;;5007490;28;20021;-67
2021/05/04 12:51:47;;;;;;;9.35;2.15;;;;;;;;;;5030478;28;20030;-67
2021/05/04 12:54:18;;;;;;;4.03;1.30;;;;;;;;;;5007828;28;20022;-68
2021/05/04 12:56:47;;;;;;;2.40;1.00;;;;;;;;;;5008568;28;20413;-66
2021/05/04 12:59:14;;;;;;;11.48;1.85;;;;;;;;;;5008469;28;20412;-66
2021/05/04 13:01:45;;;;;;;4.07;1.27;;;;;;;;;;5008458;28;20153;-67
2021/05/04 13:04:25;;;;;;;5.38;1.00;;;;;;;;;;5008310;28;20030;-66
2021/05/04 13:30:45;;;;;;;5.35;1.60;;;;;;;;;;4989051;28;20379;-67
2021/05/04 13:33:14;;;;;;;5.65;1.50;;;;;;;;;;4988211;28;20054;-71
2021/05/04 13:49:28;;;;;;;9.32;1.45;;;;;;;;;;4988645;28;20042;-68
2021/05/04 13:51:54;;;;;;;5.22;1.08;;;;;;;;;;4988707;28;20019;-71
2021/05/04 13:54:20;;;;;;;6.10;1.00;;;;;;;;;;4989954;28;20023;-66
2021/05/04 13:56:46;;;;;;;6.18;1.20;;;;;;;;;;4991707;28;20079;-66
2021/05/04 13:59:12;;;;;;;5.38;1.42;;;;;;;;;;4991664;28;20027;-67
2021/05/04 14:01:43;;;;;;;5.80;1.90;;;;;;;;;;4999500;28;20034;-68
2021/05/04 14:26:19;;;;;;;7.63;1.60;;;;;;;;;;4991253;28;20209;-71
2021/05/04 14:28:43;;;;;;;8.02;1.50;;;;;;;;;;4991753;28;20033;-71
2021/05/04 14:31:09;;;;;;;6.15;1.13;;;;;;;;;;4991066;28;20069;-68
2021/05/04 14:33:35;;;;;;;4.53;1.40;;;;;;;;;;4995972;28;20551;-70
2021/05/04 14:36:19;;;;;;;4.13;1.30;;;;;;;;;;4999149;28;20109;-68
2021/05/04 14:38:56;;;;;;;7.55;2.10;;;;;;;;;;5022483;28;20025;-66
2021/05/04 14:57:32;;;;;;;3.83;1.60;;;;;;;;;;4990591;28;20045;-70
2021/05/04 15:02:44;;;;;;;2.85;1.10;;;;;;;;;;4990869;28;20140;-68
2021/05/04 15:05:13;;;;;;;4.50;1.80;;;;;;;;;;5021866;28;20018;-67
2021/05/04 15:07:39;;;;;;;5.68;1.95;;;;;;;;;;5010612;28;20026;-69
2021/05/04 15:10:05;;;;;;;3.83;1.92;;;;;;;;;;5030380;28;20057;-67
2021/05/04 15:12:31;;;;;;;4.13;1.80;;;;;;;;;;5002608;28;20049;-66
2021/05/04 15:15:00;;;;;;;7.03;1.50;;;;;;;;;;5008987;28;20087;-68
2021/05/04 15:20:56;;;;;;;6.03;1.38;;;;;;;;;;5018694;28;20436;-71
2021/05/04 15:23:22;;;;;;;7.28;1.80;;;;;;;;;;5009982;28;20018;-70
2021/05/04 15:25:52;;;;;;;5.47;1.67;;;;;;;;;;5008168;28;20041;-65
2021/05/04 15:28:18;;;;;;;4.32;1.98;;;;;;;;;;5051525;28;20021;-66
2021/05/04 15:30:44;;;;;;;3.97;1.90;;;;;;;;;;5014821;28;20030;-66
2021/05/04 15:33:11;;;;;;;3.92;1.83;;;;;;;;;;5015202;28;20095;-66
2021/05/04 15:35:38;;;;;;;3.78;1.70;;;;;;;;;;5010707;28;20037;-66
2021/05/04 15:38:05;;;;;;;3.53;1.50;;;;;;;;;;5009429;28;20057;-65
2021/05/04 15:40:32;;;;;;;8.18;1.60;;;;;;;;;;5020552;28;20029;-69
2021/05/04 15:42:58;;;;;;;4.10;1.65;;;;;;;;;;5022382;28;20427;-67
2021/05/04 15:45:25;;;;;;;4.93;2.33;;;;;;;;;;5010133;28;20053;-72
2021/05/04 15:47:59;;;;;;;3.97;1.75;;;;;;;;;;5009921;28;20029;-69
2021/05/04 16:08:49;;;;;;;4.97;1.60;;;;;;;;;;4990565;28;20053;-75
2021/05/04 16:11:17;;;;;;;5.13;1.90;;;;;;;;;;4990294;28;20467;-71
2021/05/04 16:13:43;;;;;;;3.40;1.80;;;;;;;;;;5021432;28;20833;-71
2021/05/04 16:16:09;;;;;;;6.47;2.05;;;;;;;;;;4989338;28;20021;-73
2021/05/04 16:18:36;;;;;;;5.85;2.08;;;;;;;;;;5005388;28;20022;-73
2021/05/04 16:29:55;;;;;;;5.40;2.10;;;;;;;;;;5042158;28;20068;-75
2021/05/04 16:32:22;;;;;;;4.88;1.67;;;;;;;;;;5040726;28;20050;-73
2021/05/04 16:34:48;;;;;;;5.30;1.55;;;;;;;;;;5007958;28;20030;-73
2021/05/04 16:37:14;;;;;;;7.30;1.75;;;;;;;;;;5008973;28;20028;-71
2021/05/04 16:39:40;;;;;;;5.97;2.20;;;;;;;;;;5008812;28;20409;-67